sensor_id;sensor_type;location;lat;lon;timestamp;P1;durP1;ratioP1;P2;durP2;ratioP2
61015;SDS011;46902;52.920;6.536;2023-06-14T00:01:17;3.47;;;1.48;;
61015;SDS011;46902;52.920;6.536;2023-06-14T00:03:45;9.48;;;2.30;;
61015;SDS011;46902;52.920;6.536;2023-06-14T00:06:12;4.65;;;1.55;;
61015;SDS011;46902;52.920;6.536;2023-06-14T00:08:38;5.00;;;1.40;;
61015;SDS011;46902;52.920;6.536;2023-06-14T00:11:05;6.18;;;1.40;;
61015;SDS011;46902;52.920;6.536;2023-06-14T00:13:30;7.93;;;1.70;;
61015;SDS011;46902;52.920;6.536;2023-06-14T00:15:56;5.18;;;1.60;;
61015;SDS011;46902;52.920;6.536;2023-06-14T00:18:22;6.15;;;1.70;;
61015;SDS011;46902;52.920;6.536;2023-06-14T00:20:54;6.30;;;1.67;;
61015;SDS011;46902;52.920;6.536;2023-06-14T00:23:20;5.30;;;1.60;;
61015;SDS011;46902;52.920;6.536;2023-06-14T00:25:46;5.28;;;1.85;;
61015;SDS011;46902;52.920;6.536;2023-06-14T00:28:12;6.82;;;1.50;;
61015;SDS011;46902;52.920;6.536;2023-06-14T00:30:38;3.45;;;1.30;;
61015;SDS011;46902;52.920;6.536;2023-06-14T00:33:03;6.80;;;1.38;;
61015;SDS011;46902;52.920;6.536;2023-06-14T00:35:29;4.43;;;1.77;;
61015;SDS011;46902;52.920;6.536;2023-06-14T00:37:55;5.05;;;1.95;;
61015;SDS011;46902;52.920;6.536;2023-06-14T00:40:21;4.15;;;1.60;;
61015;SDS011;46902;52.920;6.536;2023-06-14T00:42:47;4.20;;;1.40;;
61015;SDS011;46902;52.920;6.536;2023-06-14T00:45:12;5.35;;;1.75;;
61015;SDS011;46902;52.920;6.536;2023-06-14T00:47:38;6.97;;;1.75;;
61015;SDS011;46902;52.920;6.536;2023-06-14T00:50:07;3.40;;;1.80;;
61015;SDS011;46902;52.920;6.536;2023-06-14T00:52:34;6.05;;;1.67;;
61015;SDS011;46902;52.920;6.536;2023-06-14T00:55:00;6.88;;;2.05;;
61015;SDS011;46902;52.920;6.536;2023-06-14T00:57:26;7.78;;;1.85;;
61015;SDS011;46902;52.920;6.536;2023-06-14T00:59:52;5.82;;;1.55;;
61015;SDS011;46902;52.920;6.536;2023-06-14T01:02:18;10.38;;;1.98;;
61015;SDS011;46902;52.920;6.536;2023-06-14T01:04:45;4.13;;;1.55;;
61015;SDS011;46902;52.920;6.536;2023-06-14T01:07:33;6.75;;;1.40;;
61015;SDS011;46902;52.920;6.536;2023-06-14T01:10:36;7.65;;;1.60;;
61015;SDS011;46902;52.920;6.536;2023-06-14T01:13:15;9.02;;;1.60;;
61015;SDS011;46902;52.920;6.536;2023-06-14T01:15:54;5.35;;;1.67;;
61015;SDS011;46902;52.920;6.536;2023-06-14T01:18:21;3.75;;;1.33;;
61015;SDS011;46902;52.920;6.536;2023-06-14T01:20:49;4.82;;;1.58;;
61015;SDS011;46902;52.920;6.536;2023-06-14T01:23:21;5.53;;;1.60;;
61015;SDS011;46902;52.920;6.536;2023-06-14T01:25:48;6.57;;;1.60;;
61015;SDS011;46902;52.920;6.536;2023-06-14T01:28:18;4.38;;;1.70;;
61015;SDS011;46902;52.920;6.536;2023-06-14T01:30:46;3.55;;;1.52;;
61015;SDS011;46902;52.920;6.536;2023-06-14T01:33:15;7.75;;;1.75;;
61015;SDS011;46902;52.920;6.536;2023-06-14T01:35:51;4.80;;;1.63;;
61015;SDS011;46902;52.920;6.536;2023-06-14T01:38:17;5.25;;;1.58;;
61015;SDS011;46902;52.920;6.536;2023-06-14T01:40:46;6.90;;;1.50;;
61015;SDS011;46902;52.920;6.536;2023-06-14T01:43:13;5.80;;;1.52;;
61015;SDS011;46902;52.920;6.536;2023-06-14T01:45:40;6.90;;;1.80;;
61015;SDS011;46902;52.920;6.536;2023-06-14T01:48:08;5.13;;;1.48;;
61015;SDS011;46902;52.920;6.536;2023-06-14T01:50:34;6.13;;;1.27;;
61015;SDS011;46902;52.920;6.536;2023-06-14T01:53:00;9.93;;;2.30;;
61015;SDS011;46902;52.920;6.536;2023-06-14T01:55:25;4.50;;;1.40;;
61015;SDS011;46902;52.920;6.536;2023-06-14T01:57:52;4.07;;;1.27;;
61015;SDS011;46902;52.920;6.536;2023-06-14T02:00:18;2.85;;;1.35;;
61015;SDS011;46902;52.920;6.536;2023-06-14T02:02:44;7.82;;;1.83;;
61015;SDS011;46902;52.920;6.536;2023-06-14T02:05:11;3.83;;;1.73;;
61015;SDS011;46902;52.920;6.536;2023-06-14T02:07:37;5.35;;;1.80;;
61015;SDS011;46902;52.920;6.536;2023-06-14T02:10:03;7.18;;;1.95;;
61015;SDS011;46902;52.920;6.536;2023-06-14T02:12:29;3.40;;;1.55;;
61015;SDS011;46902;52.920;6.536;2023-06-14T02:14:55;11.80;;;1.95;;
61015;SDS011;46902;52.920;6.536;2023-06-14T02:17:21;3.70;;;1.70;;
61015;SDS011;46902;52.920;6.536;2023-06-14T02:19:47;5.47;;;1.40;;
61015;SDS011;46902;52.920;6.536;2023-06-14T02:22:14;3.45;;;1.50;;
61015;SDS011;46902;52.920;6.536;2023-06-14T02:24:40;6.15;;;1.50;;
61015;SDS011;46902;52.920;6.536;2023-06-14T02:27:07;4.13;;;1.38;;
61015;SDS011;46902;52.920;6.536;2023-06-14T02:29:35;5.10;;;1.80;;
61015;SDS011;46902;52.920;6.536;2023-06-14T02:32:01;2.58;;;1.23;;
61015;SDS011;46902;52.920;6.536;2023-06-14T02:34:27;4.60;;;1.63;;
61015;SDS011;46902;52.920;6.536;2023-06-14T02:36:53;6.40;;;1.67;;
61015;SDS011;46902;52.920;6.536;2023-06-14T02:39:20;5.75;;;1.85;;
61015;SDS011;46902;52.920;6.536;2023-06-14T02:41:48;9.55;;;1.70;;
61015;SDS011;46902;52.920;6.536;2023-06-14T02:44:14;3.85;;;1.60;;
61015;SDS011;46902;52.920;6.536;2023-06-14T02:46:40;7.13;;;1.67;;
61015;SDS011;46902;52.920;6.536;2023-06-14T02:49:06;4.32;;;1.50;;
61015;SDS011;46902;52.920;6.536;2023-06-14T02:51:31;4.32;;;1.42;;
61015;SDS011;46902;52.920;6.536;2023-06-14T02:53:57;4.47;;;1.77;;
61015;SDS011;46902;52.920;6.536;2023-06-14T02:56:22;3.40;;;1.50;;
61015;SDS011;46902;52.920;6.536;2023-06-14T02:58:48;3.80;;;1.50;;
61015;SDS011;46902;52.920;6.536;2023-06-14T03:01:14;6.80;;;2.38;;
61015;SDS011;46902;52.920;6.536;2023-06-14T03:03:39;2.88;;;1.60;;
61015;SDS011;46902;52.920;6.536;2023-06-14T03:06:05;8.00;;;2.13;;
61015;SDS011;46902;52.920;6.536;2023-06-14T03:08:33;6.28;;;2.00;;
61015;SDS011;46902;52.920;6.536;2023-06-14T03:11:04;5.68;;;2.00;;
61015;SDS011;46902;52.920;6.536;2023-06-14T03:13:33;7.00;;;2.17;;
61015;SDS011;46902;52.920;6.536;2023-06-14T03:15:59;5.20;;;1.70;;
61015;SDS011;46902;52.920;6.536;2023-06-14T03:18:31;4.30;;;1.75;;
61015;SDS011;46902;52.920;6.536;2023-06-14T03:21:00;4.90;;;1.83;;
61015;SDS011;46902;52.920;6.536;2023-06-14T03:23:30;5.63;;;1.88;;
61015;SDS011;46902;52.920;6.536;2023-06-14T03:25:56;6.20;;;1.83;;
61015;SDS011;46902;52.920;6.536;2023-06-14T03:28:22;6.15;;;2.22;;
61015;SDS011;46902;52.920;6.536;2023-06-14T03:30:47;5.70;;;2.03;;
61015;SDS011;46902;52.920;6.536;2023-06-14T03:33:13;2.92;;;1.60;;
61015;SDS011;46902;52.920;6.536;2023-06-14T03:35:38;7.47;;;1.77;;
61015;SDS011;46902;52.920;6.536;2023-06-14T03:38:04;3.72;;;1.90;;
61015;SDS011;46902;52.920;6.536;2023-06-14T03:40:30;4.65;;;1.90;;
61015;SDS011;46902;52.920;6.536;2023-06-14T03:42:56;10.23;;;2.10;;
61015;SDS011;46902;52.920;6.536;2023-06-14T03:45:21;8.18;;;1.90;;
61015;SDS011;46902;52.920;6.536;2023-06-14T03:47:47;3.38;;;1.60;;
61015;SDS011;46902;52.920;6.536;2023-06-14T03:50:13;7.28;;;1.90;;
61015;SDS011;46902;52.920;6.536;2023-06-14T03:52:38;5.22;;;1.85;;
61015;SDS011;46902;52.920;6.536;2023-06-14T03:55:07;7.25;;;1.60;;
61015;SDS011;46902;52.920;6.536;2023-06-14T03:57:33;7.18;;;1.80;;
61015;SDS011;46902;52.920;6.536;2023-06-14T03:59:59;4.72;;;1.80;;
61015;SDS011;46902;52.920;6.536;2023-06-14T04:02:24;5.50;;;2.10;;
61015;SDS011;46902;52.920;6.536;2023-06-14T04:04:53;5.93;;;2.13;;
61015;SDS011;46902;52.920;6.536;2023-06-14T04:07:19;4.63;;;1.92;;
61015;SDS011;46902;52.920;6.536;2023-06-14T04:09:45;6.70;;;2.30;;
61015;SDS011;46902;52.920;6.536;2023-06-14T04:12:11;3.42;;;2.28;;
61015;SDS011;46902;52.920;6.536;2023-06-14T04:14:37;6.82;;;1.92;;
61015;SDS011;46902;52.920;6.536;2023-06-14T04:17:04;8.40;;;2.10;;
61015;SDS011;46902;52.920;6.536;2023-06-14T04:19:30;3.95;;;1.83;;
61015;SDS011;46902;52.920;6.536;2023-06-14T04:21:56;7.95;;;2.17;;
61015;SDS011;46902;52.920;6.536;2023-06-14T04:24:22;5.82;;;1.83;;
61015;SDS011;46902;52.920;6.536;2023-06-14T04:26:48;5.28;;;2.00;;
61015;SDS011;46902;52.920;6.536;2023-06-14T04:29:14;6.10;;;1.88;;
61015;SDS011;46902;52.920;6.536;2023-06-14T04:31:41;6.32;;;2.40;;
61015;SDS011;46902;52.920;6.536;2023-06-14T04:34:11;12.65;;;2.38;;
61015;SDS011;46902;52.920;6.536;2023-06-14T04:36:41;6.93;;;2.30;;
61015;SDS011;46902;52.920;6.536;2023-06-14T04:41:43;8.02;;;2.20;;
61015;SDS011;46902;52.920;6.536;2023-06-14T04:44:09;5.18;;;1.95;;
61015;SDS011;46902;52.920;6.536;2023-06-14T04:46:35;4.68;;;2.53;;
61015;SDS011;46902;52.920;6.536;2023-06-14T04:49:10;8.05;;;2.05;;
61015;SDS011;46902;52.920;6.536;2023-06-14T04:51:42;6.70;;;2.03;;
61015;SDS011;46902;52.920;6.536;2023-06-14T04:54:09;5.05;;;1.80;;
61015;SDS011;46902;52.920;6.536;2023-06-14T04:56:39;5.10;;;2.30;;
61015;SDS011;46902;52.920;6.536;2023-06-14T04:59:05;6.45;;;2.05;;
61015;SDS011;46902;52.920;6.536;2023-06-14T05:01:31;4.05;;;2.35;;
61015;SDS011;46902;52.920;6.536;2023-06-14T05:03:58;5.85;;;2.10;;
61015;SDS011;46902;52.920;6.536;2023-06-14T05:06:24;5.93;;;2.13;;
61015;SDS011;46902;52.920;6.536;2023-06-14T05:08:49;7.28;;;2.80;;
61015;SDS011;46902;52.920;6.536;2023-06-14T05:11:15;7.93;;;2.22;;
61015;SDS011;46902;52.920;6.536;2023-06-14T05:13:42;6.45;;;2.17;;
61015;SDS011;46902;52.920;6.536;2023-06-14T05:16:09;8.23;;;2.13;;
61015;SDS011;46902;52.920;6.536;2023-06-14T05:18:36;5.55;;;1.95;;
61015;SDS011;46902;52.920;6.536;2023-06-14T05:21:02;5.88;;;2.30;;
61015;SDS011;46902;52.920;6.536;2023-06-14T05:23:29;5.82;;;2.67;;
61015;SDS011;46902;52.920;6.536;2023-06-14T05:25:55;4.97;;;2.50;;
61015;SDS011;46902;52.920;6.536;2023-06-14T05:28:21;6.18;;;2.50;;
61015;SDS011;46902;52.920;6.536;2023-06-14T05:30:47;4.40;;;2.42;;
61015;SDS011;46902;52.920;6.536;2023-06-14T05:33:13;7.90;;;2.53;;
61015;SDS011;46902;52.920;6.536;2023-06-14T05:35:38;5.70;;;2.08;;
61015;SDS011;46902;52.920;6.536;2023-06-14T05:38:04;6.85;;;2.42;;
61015;SDS011;46902;52.920;6.536;2023-06-14T05:40:30;4.35;;;2.08;;
61015;SDS011;46902;52.920;6.536;2023-06-14T05:42:56;3.08;;;1.80;;
61015;SDS011;46902;52.920;6.536;2023-06-14T05:45:21;5.78;;;2.63;;
61015;SDS011;46902;52.920;6.536;2023-06-14T05:47:47;6.05;;;2.22;;
61015;SDS011;46902;52.920;6.536;2023-06-14T05:50:13;8.68;;;2.50;;
61015;SDS011;46902;52.920;6.536;2023-06-14T05:52:38;6.93;;;2.17;;
61015;SDS011;46902;52.920;6.536;2023-06-14T05:55:04;7.30;;;2.75;;
61015;SDS011;46902;52.920;6.536;2023-06-14T05:57:31;6.85;;;2.30;;
61015;SDS011;46902;52.920;6.536;2023-06-14T05:59:56;5.85;;;2.25;;
61015;SDS011;46902;52.920;6.536;2023-06-14T06:02:22;4.22;;;2.28;;
61015;SDS011;46902;52.920;6.536;2023-06-14T06:04:47;5.15;;;2.00;;
61015;SDS011;46902;52.920;6.536;2023-06-14T06:07:13;6.78;;;2.33;;
61015;SDS011;46902;52.920;6.536;2023-06-14T06:09:39;4.70;;;2.30;;
61015;SDS011;46902;52.920;6.536;2023-06-14T06:12:06;6.63;;;2.42;;
61015;SDS011;46902;52.920;6.536;2023-06-14T06:14:32;5.07;;;1.98;;
61015;SDS011;46902;52.920;6.536;2023-06-14T06:16:57;7.72;;;2.35;;
61015;SDS011;46902;52.920;6.536;2023-06-14T06:19:23;4.18;;;2.00;;
61015;SDS011;46902;52.920;6.536;2023-06-14T06:21:49;4.88;;;2.08;;
61015;SDS011;46902;52.920;6.536;2023-06-14T06:24:15;7.80;;;2.20;;
61015;SDS011;46902;52.920;6.536;2023-06-14T06:26:41;3.22;;;1.77;;
61015;SDS011;46902;52.920;6.536;2023-06-14T06:29:06;6.45;;;2.10;;
61015;SDS011;46902;52.920;6.536;2023-06-14T06:31:32;6.15;;;1.85;;
61015;SDS011;46902;52.920;6.536;2023-06-14T06:33:57;5.53;;;2.38;;
61015;SDS011;46902;52.920;6.536;2023-06-14T06:36:23;7.72;;;1.95;;
61015;SDS011;46902;52.920;6.536;2023-06-14T06:38:49;3.95;;;1.83;;
61015;SDS011;46902;52.920;6.536;2023-06-14T06:41:15;5.10;;;1.77;;
61015;SDS011;46902;52.920;6.536;2023-06-14T06:43:41;4.20;;;1.33;;
61015;SDS011;46902;52.920;6.536;2023-06-14T06:46:07;5.78;;;1.75;;
61015;SDS011;46902;52.920;6.536;2023-06-14T06:48:32;6.10;;;2.22;;
61015;SDS011;46902;52.920;6.536;2023-06-14T06:50:58;5.88;;;1.80;;
61015;SDS011;46902;52.920;6.536;2023-06-14T06:53:23;4.43;;;1.95;;
61015;SDS011;46902;52.920;6.536;2023-06-14T06:55:49;3.58;;;1.70;;
61015;SDS011;46902;52.920;6.536;2023-06-14T06:58:15;4.32;;;1.60;;
61015;SDS011;46902;52.920;6.536;2023-06-14T07:00:40;5.85;;;1.75;;
61015;SDS011;46902;52.920;6.536;2023-06-14T07:03:06;5.35;;;1.98;;
61015;SDS011;46902;52.920;6.536;2023-06-14T07:05:32;6.78;;;1.92;;
61015;SDS011;46902;52.920;6.536;2023-06-14T07:07:58;6.35;;;1.80;;
61015;SDS011;46902;52.920;6.536;2023-06-14T07:10:23;7.32;;;1.90;;
61015;SDS011;46902;52.920;6.536;2023-06-14T07:12:52;4.30;;;1.75;;
61015;SDS011;46902;52.920;6.536;2023-06-14T07:15:17;5.07;;;1.98;;
61015;SDS011;46902;52.920;6.536;2023-06-14T07:17:43;2.58;;;1.55;;
61015;SDS011;46902;52.920;6.536;2023-06-14T07:20:09;5.88;;;1.90;;
61015;SDS011;46902;52.920;6.536;2023-06-14T07:22:42;3.67;;;1.75;;
61015;SDS011;46902;52.920;6.536;2023-06-14T07:25:08;4.15;;;1.80;;
61015;SDS011;46902;52.920;6.536;2023-06-14T07:27:37;5.45;;;1.73;;
61015;SDS011;46902;52.920;6.536;2023-06-14T07:30:03;6.22;;;1.98;;
61015;SDS011;46902;52.920;6.536;2023-06-14T07:32:29;4.25;;;1.40;;
61015;SDS011;46902;52.920;6.536;2023-06-14T07:34:54;4.88;;;1.83;;
61015;SDS011;46902;52.920;6.536;2023-06-14T07:37:20;6.50;;;1.70;;
61015;SDS011;46902;52.920;6.536;2023-06-14T07:39:46;7.03;;;1.70;;
61015;SDS011;46902;52.920;6.536;2023-06-14T07:42:11;4.22;;;1.60;;
61015;SDS011;46902;52.920;6.536;2023-06-14T07:44:37;2.42;;;1.30;;
61015;SDS011;46902;52.920;6.536;2023-06-14T07:47:03;3.90;;;1.42;;
61015;SDS011;46902;52.920;6.536;2023-06-14T07:49:29;4.93;;;1.50;;
61015;SDS011;46902;52.920;6.536;2023-06-14T07:51:54;3.58;;;1.50;;
61015;SDS011;46902;52.920;6.536;2023-06-14T07:54:20;4.07;;;1.40;;
61015;SDS011;46902;52.920;6.536;2023-06-14T07:56:50;2.70;;;1.30;;
61015;SDS011;46902;52.920;6.536;2023-06-14T07:59:15;5.25;;;1.63;;
61015;SDS011;46902;52.920;6.536;2023-06-14T08:01:41;6.32;;;1.70;;
61015;SDS011;46902;52.920;6.536;2023-06-14T08:04:12;5.60;;;1.70;;
61015;SDS011;46902;52.920;6.536;2023-06-14T08:06:38;4.20;;;1.60;;
61015;SDS011;46902;52.920;6.536;2023-06-14T08:09:04;4.32;;;1.85;;
61015;SDS011;46902;52.920;6.536;2023-06-14T08:11:30;3.90;;;1.50;;
61015;SDS011;46902;52.920;6.536;2023-06-14T08:13:56;5.95;;;1.70;;
61015;SDS011;46902;52.920;6.536;2023-06-14T08:16:21;5.13;;;1.50;;
61015;SDS011;46902;52.920;6.536;2023-06-14T08:18:47;6.78;;;1.73;;
61015;SDS011;46902;52.920;6.536;2023-06-14T08:21:13;4.82;;;1.52;;
61015;SDS011;46902;52.920;6.536;2023-06-14T08:23:40;4.85;;;1.55;;
61015;SDS011;46902;52.920;6.536;2023-06-14T08:26:07;5.05;;;1.83;;
61015;SDS011;46902;52.920;6.536;2023-06-14T08:28:33;4.47;;;1.42;;
61015;SDS011;46902;52.920;6.536;2023-06-14T08:30:59;4.63;;;1.60;;
61015;SDS011;46902;52.920;6.536;2023-06-14T08:33:25;5.07;;;1.98;;
61015;SDS011;46902;52.920;6.536;2023-06-14T08:35:50;5.78;;;1.50;;
61015;SDS011;46902;52.920;6.536;2023-06-14T08:38:16;5.15;;;1.60;;
61015;SDS011;46902;52.920;6.536;2023-06-14T08:40:42;6.00;;;1.40;;
61015;SDS011;46902;52.920;6.536;2023-06-14T08:43:07;6.32;;;1.60;;
61015;SDS011;46902;52.920;6.536;2023-06-14T08:45:33;5.75;;;1.45;;
61015;SDS011;46902;52.920;6.536;2023-06-14T08:47:59;6.93;;;1.50;;
61015;SDS011;46902;52.920;6.536;2023-06-14T08:50:26;2.45;;;1.58;;
61015;SDS011;46902;52.920;6.536;2023-06-14T08:52:56;4.93;;;1.58;;
61015;SDS011;46902;52.920;6.536;2023-06-14T08:55:26;6.55;;;1.45;;
61015;SDS011;46902;52.920;6.536;2023-06-14T08:57:54;6.75;;;1.80;;
61015;SDS011;46902;52.920;6.536;2023-06-14T09:00:22;3.95;;;1.50;;
61015;SDS011;46902;52.920;6.536;2023-06-14T09:02:49;2.80;;;1.70;;
61015;SDS011;46902;52.920;6.536;2023-06-14T09:05:22;5.95;;;1.55;;
61015;SDS011;46902;52.920;6.536;2023-06-14T09:07:49;4.25;;;1.50;;
61015;SDS011;46902;52.920;6.536;2023-06-14T09:10:15;7.03;;;1.33;;
61015;SDS011;46902;52.920;6.536;2023-06-14T09:12:43;7.53;;;1.65;;
61015;SDS011;46902;52.920;6.536;2023-06-14T09:15:09;2.45;;;1.60;;
61015;SDS011;46902;52.920;6.536;2023-06-14T09:17:35;5.50;;;1.42;;
61015;SDS011;46902;52.920;6.536;2023-06-14T09:20:02;7.93;;;1.80;;
61015;SDS011;46902;52.920;6.536;2023-06-14T09:22:31;4.47;;;1.30;;
61015;SDS011;46902;52.920;6.536;2023-06-14T09:24:57;7.32;;;1.40;;
61015;SDS011;46902;52.920;6.536;2023-06-14T09:27:25;4.40;;;1.40;;
61015;SDS011;46902;52.920;6.536;2023-06-14T09:29:51;6.25;;;1.50;;
61015;SDS011;46902;52.920;6.536;2023-06-14T09:32:17;2.95;;;1.50;;
61015;SDS011;46902;52.920;6.536;2023-06-14T09:34:43;12.00;;;1.80;;
61015;SDS011;46902;52.920;6.536;2023-06-14T09:37:10;3.38;;;1.60;;
61015;SDS011;46902;52.920;6.536;2023-06-14T09:39:38;5.13;;;1.48;;
61015;SDS011;46902;52.920;6.536;2023-06-14T09:42:18;8.05;;;1.98;;
61015;SDS011;46902;52.920;6.536;2023-06-14T09:44:47;5.82;;;1.50;;
61015;SDS011;46902;52.920;6.536;2023-06-14T09:47:14;4.30;;;1.55;;
61015;SDS011;46902;52.920;6.536;2023-06-14T09:49:42;3.67;;;1.40;;
61015;SDS011;46902;52.920;6.536;2023-06-14T09:52:15;6.80;;;1.40;;
61015;SDS011;46902;52.920;6.536;2023-06-14T09:54:45;5.80;;;1.42;;
61015;SDS011;46902;52.920;6.536;2023-06-14T09:57:16;6.45;;;1.80;;
61015;SDS011;46902;52.920;6.536;2023-06-14T09:59:45;5.20;;;1.67;;
61015;SDS011;46902;52.920;6.536;2023-06-14T10:02:25;6.88;;;1.52;;
61015;SDS011;46902;52.920;6.536;2023-06-14T10:05:11;5.05;;;1.30;;
61015;SDS011;46902;52.920;6.536;2023-06-14T10:10:18;5.93;;;1.27;;
61015;SDS011;46902;52.920;6.536;2023-06-14T10:12:44;3.25;;;1.05;;
61015;SDS011;46902;52.920;6.536;2023-06-14T10:15:11;3.35;;;1.00;;
61015;SDS011;46902;52.920;6.536;2023-06-14T10:17:59;5.65;;;1.33;;
61015;SDS011;46902;52.920;6.536;2023-06-14T10:20:37;5.40;;;1.08;;
61015;SDS011;46902;52.920;6.536;2023-06-14T10:23:18;2.33;;;1.00;;
61015;SDS011;46902;52.920;6.536;2023-06-14T10:25:49;7.15;;;0.90;;
61015;SDS011;46902;52.920;6.536;2023-06-14T10:28:16;2.58;;;1.00;;
61015;SDS011;46902;52.920;6.536;2023-06-14T10:33:55;3.05;;;1.33;;
61015;SDS011;46902;52.920;6.536;2023-06-14T10:38:57;6.65;;;1.10;;
61015;SDS011;46902;52.920;6.536;2023-06-14T10:41:29;6.78;;;1.00;;
61015;SDS011;46902;52.920;6.536;2023-06-14T10:46:49;2.25;;;0.90;;
61015;SDS011;46902;52.920;6.536;2023-06-14T10:49:35;2.75;;;1.02;;
61015;SDS011;46902;52.920;6.536;2023-06-14T10:52:05;3.63;;;0.98;;
61015;SDS011;46902;52.920;6.536;2023-06-14T10:54:37;7.55;;;0.95;;
61015;SDS011;46902;52.920;6.536;2023-06-14T10:57:02;2.35;;;1.00;;
61015;SDS011;46902;52.920;6.536;2023-06-14T10:59:32;1.67;;;0.82;;
61015;SDS011;46902;52.920;6.536;2023-06-14T11:05:03;0.93;;;0.68;;
61015;SDS011;46902;52.920;6.536;2023-06-14T11:13:06;1.70;;;0.80;;
61015;SDS011;46902;52.920;6.536;2023-06-14T11:15:32;4.80;;;1.02;;
61015;SDS011;46902;52.920;6.536;2023-06-14T11:18:03;3.22;;;1.10;;
61015;SDS011;46902;52.920;6.536;2023-06-14T11:20:31;2.92;;;1.13;;
61015;SDS011;46902;52.920;6.536;2023-06-14T11:22:58;2.10;;;0.90;;
61015;SDS011;46902;52.920;6.536;2023-06-14T11:25:24;4.00;;;1.10;;
61015;SDS011;46902;52.920;6.536;2023-06-14T11:27:51;8.18;;;1.10;;
61015;SDS011;46902;52.920;6.536;2023-06-14T11:30:17;5.85;;;1.10;;
61015;SDS011;46902;52.920;6.536;2023-06-14T11:32:46;2.65;;;1.20;;
61015;SDS011;46902;52.920;6.536;2023-06-14T11:35:16;2.78;;;1.08;;
61015;SDS011;46902;52.920;6.536;2023-06-14T11:37:43;3.33;;;0.88;;
61015;SDS011;46902;52.920;6.536;2023-06-14T11:40:13;3.72;;;1.00;;
61015;SDS011;46902;52.920;6.536;2023-06-14T11:42:40;5.82;;;1.10;;
61015;SDS011;46902;52.920;6.536;2023-06-14T11:45:12;4.60;;;0.80;;
61015;SDS011;46902;52.920;6.536;2023-06-14T11:47:38;2.13;;;0.80;;
61015;SDS011;46902;52.920;6.536;2023-06-14T11:50:05;8.82;;;1.25;;
61015;SDS011;46902;52.920;6.536;2023-06-14T11:52:33;4.68;;;1.05;;
61015;SDS011;46902;52.920;6.536;2023-06-14T11:54:59;3.60;;;1.00;;
61015;SDS011;46902;52.920;6.536;2023-06-14T11:57:26;6.30;;;1.35;;
61015;SDS011;46902;52.920;6.536;2023-06-14T11:59:51;3.92;;;1.20;;
61015;SDS011;46902;52.920;6.536;2023-06-14T12:02:21;5.47;;;1.02;;
61015;SDS011;46902;52.920;6.536;2023-06-14T12:04:47;4.63;;;1.02;;
61015;SDS011;46902;52.920;6.536;2023-06-14T12:07:16;2.88;;;1.00;;
61015;SDS011;46902;52.920;6.536;2023-06-14T12:12:23;2.78;;;0.90;;
61015;SDS011;46902;52.920;6.536;2023-06-14T12:14:53;2.42;;;1.08;;
61015;SDS011;46902;52.920;6.536;2023-06-14T12:17:20;1.40;;;0.90;;
61015;SDS011;46902;52.920;6.536;2023-06-14T12:19:45;7.47;;;1.08;;
61015;SDS011;46902;52.920;6.536;2023-06-14T12:22:12;2.85;;;0.85;;
61015;SDS011;46902;52.920;6.536;2023-06-14T12:24:38;4.15;;;1.10;;
61015;SDS011;46902;52.920;6.536;2023-06-14T12:27:07;5.40;;;1.38;;
61015;SDS011;46902;52.920;6.536;2023-06-14T12:29:33;4.43;;;1.17;;
61015;SDS011;46902;52.920;6.536;2023-06-14T12:31:59;3.05;;;1.10;;
61015;SDS011;46902;52.920;6.536;2023-06-14T12:34:25;3.40;;;1.02;;
61015;SDS011;46902;52.920;6.536;2023-06-14T12:36:52;3.15;;;0.93;;
61015;SDS011;46902;52.920;6.536;2023-06-14T12:39:19;1.50;;;0.70;;
61015;SDS011;46902;52.920;6.536;2023-06-14T12:41:49;3.45;;;1.17;;
61015;SDS011;46902;52.920;6.536;2023-06-14T12:44:15;2.08;;;1.00;;
61015;SDS011;46902;52.920;6.536;2023-06-14T12:46:41;3.75;;;1.05;;
61015;SDS011;46902;52.920;6.536;2023-06-14T12:49:09;3.03;;;1.00;;
61015;SDS011;46902;52.920;6.536;2023-06-14T12:51:41;3.80;;;0.98;;
61015;SDS011;46902;52.920;6.536;2023-06-14T12:54:06;2.53;;;0.98;;
61015;SDS011;46902;52.920;6.536;2023-06-14T12:56:32;6.47;;;1.20;;
61015;SDS011;46902;52.920;6.536;2023-06-14T12:58:58;3.58;;;1.10;;
61015;SDS011;46902;52.920;6.536;2023-06-14T13:01:23;3.30;;;0.90;;
61015;SDS011;46902;52.920;6.536;2023-06-14T13:03:49;5.75;;;1.00;;
61015;SDS011;46902;52.920;6.536;2023-06-14T13:06:17;5.00;;;1.35;;
61015;SDS011;46902;52.920;6.536;2023-06-14T13:08:43;5.22;;;0.90;;
61015;SDS011;46902;52.920;6.536;2023-06-14T13:11:08;2.47;;;1.10;;
61015;SDS011;46902;52.920;6.536;2023-06-14T13:13:34;4.03;;;1.10;;
61015;SDS011;46902;52.920;6.536;2023-06-14T13:15:59;3.42;;;0.82;;
61015;SDS011;46902;52.920;6.536;2023-06-14T13:18:25;1.23;;;0.75;;
61015;SDS011;46902;52.920;6.536;2023-06-14T13:20:51;2.70;;;1.00;;
61015;SDS011;46902;52.920;6.536;2023-06-14T13:23:17;3.40;;;0.90;;
61015;SDS011;46902;52.920;6.536;2023-06-14T13:25:43;3.08;;;0.93;;
61015;SDS011;46902;52.920;6.536;2023-06-14T13:28:09;5.95;;;1.17;;
61015;SDS011;46902;52.920;6.536;2023-06-14T13:30:35;3.70;;;1.10;;
61015;SDS011;46902;52.920;6.536;2023-06-14T13:33:00;3.33;;;1.05;;
61015;SDS011;46902;52.920;6.536;2023-06-14T13:35:26;2.30;;;0.90;;
61015;SDS011;46902;52.920;6.536;2023-06-14T13:37:52;2.25;;;0.90;;
61015;SDS011;46902;52.920;6.536;2023-06-14T13:40:18;1.50;;;0.90;;
61015;SDS011;46902;52.920;6.536;2023-06-14T13:42:44;1.75;;;0.90;;
61015;SDS011;46902;52.920;6.536;2023-06-14T13:45:11;3.05;;;1.08;;
61015;SDS011;46902;52.920;6.536;2023-06-14T13:47:37;2.05;;;0.95;;
61015;SDS011;46902;52.920;6.536;2023-06-14T13:50:03;5.50;;;1.00;;
61015;SDS011;46902;52.920;6.536;2023-06-14T13:52:30;3.15;;;1.00;;
61015;SDS011;46902;52.920;6.536;2023-06-14T13:54:55;3.60;;;1.00;;
61015;SDS011;46902;52.920;6.536;2023-06-14T13:57:21;2.35;;;1.05;;
61015;SDS011;46902;52.920;6.536;2023-06-14T13:59:47;3.08;;;1.20;;
61015;SDS011;46902;52.920;6.536;2023-06-14T14:02:13;6.15;;;1.10;;
61015;SDS011;46902;52.920;6.536;2023-06-14T14:04:39;2.03;;;1.00;;
61015;SDS011;46902;52.920;6.536;2023-06-14T14:07:05;1.80;;;0.85;;
61015;SDS011;46902;52.920;6.536;2023-06-14T14:09:32;3.38;;;1.10;;
61015;SDS011;46902;52.920;6.536;2023-06-14T14:11:59;2.55;;;0.93;;
61015;SDS011;46902;52.920;6.536;2023-06-14T14:14:25;2.45;;;1.00;;
61015;SDS011;46902;52.920;6.536;2023-06-14T14:16:52;2.53;;;0.90;;
61015;SDS011;46902;52.920;6.536;2023-06-14T14:19:20;2.70;;;1.15;;
61015;SDS011;46902;52.920;6.536;2023-06-14T14:21:47;2.10;;;1.10;;
61015;SDS011;46902;52.920;6.536;2023-06-14T14:24:12;4.40;;;1.00;;
61015;SDS011;46902;52.920;6.536;2023-06-14T14:26:38;3.58;;;1.10;;
61015;SDS011;46902;52.920;6.536;2023-06-14T14:29:04;5.93;;;1.17;;
61015;SDS011;46902;52.920;6.536;2023-06-14T14:31:30;4.10;;;1.15;;
61015;SDS011;46902;52.920;6.536;2023-06-14T14:33:56;2.90;;;1.60;;
61015;SDS011;46902;52.920;6.536;2023-06-14T14:36:21;2.75;;;0.88;;
61015;SDS011;46902;52.920;6.536;2023-06-14T14:38:47;1.83;;;1.00;;
61015;SDS011;46902;52.920;6.536;2023-06-14T14:41:13;5.20;;;1.10;;
61015;SDS011;46902;52.920;6.536;2023-06-14T14:43:39;3.72;;;1.00;;
61015;SDS011;46902;52.920;6.536;2023-06-14T14:46:05;4.25;;;0.90;;
61015;SDS011;46902;52.920;6.536;2023-06-14T14:48:30;7.45;;;1.40;;
61015;SDS011;46902;52.920;6.536;2023-06-14T14:50:56;2.30;;;1.17;;
61015;SDS011;46902;52.920;6.536;2023-06-14T14:53:22;3.22;;;1.00;;
61015;SDS011;46902;52.920;6.536;2023-06-14T14:55:48;3.30;;;1.10;;
61015;SDS011;46902;52.920;6.536;2023-06-14T14:58:14;4.63;;;1.10;;
61015;SDS011;46902;52.920;6.536;2023-06-14T15:00:46;1.80;;;0.90;;
61015;SDS011;46902;52.920;6.536;2023-06-14T15:03:13;3.53;;;1.05;;
61015;SDS011;46902;52.920;6.536;2023-06-14T15:05:39;2.50;;;1.13;;
61015;SDS011;46902;52.920;6.536;2023-06-14T15:08:05;2.90;;;1.02;;
61015;SDS011;46902;52.920;6.536;2023-06-14T15:10:36;2.55;;;1.27;;
61015;SDS011;46902;52.920;6.536;2023-06-14T15:13:05;4.93;;;1.00;;